createdAt,value
2023-03-12T00:00:04.433Z,4.78
2023-03-12T00:02:35.177Z,5.05
2023-03-12T00:05:02.137Z,4.70
2023-03-12T00:07:29.175Z,4.78
2023-03-12T00:09:56.036Z,4.38
2023-03-12T00:12:23.009Z,4.40
2023-03-12T00:14:49.822Z,4.07
2023-03-12T00:17:16.609Z,4.00
2023-03-12T00:19:43.382Z,4.60
2023-03-12T00:22:10.150Z,3.90
2023-03-12T00:24:36.935Z,4.18
2023-03-12T00:27:04.703Z,4.20
2023-03-12T00:29:31.479Z,3.80
2023-03-12T00:31:58.527Z,4.32
2023-03-12T00:34:25.718Z,3.80
2023-03-12T00:36:52.509Z,4.32
2023-03-12T00:39:19.389Z,4.03
2023-03-12T00:41:46.263Z,4.25
2023-03-12T00:44:13.598Z,3.85
2023-03-12T00:46:40.507Z,3.80
2023-03-12T00:49:07.860Z,4.93
2023-03-12T00:51:35.269Z,4.00
2023-03-12T00:54:02.051Z,4.72
2023-03-12T00:56:28.883Z,4.00
2023-03-12T00:58:56.103Z,4.28
2023-03-12T01:01:23.058Z,4.07
2023-03-12T01:03:52.089Z,3.88
2023-03-12T01:06:19.298Z,4.07
2023-03-12T01:08:46.141Z,4.20
2023-03-12T01:11:18.552Z,3.60
2023-03-12T01:13:45.733Z,4.07
2023-03-12T01:16:13.011Z,4.25
2023-03-12T01:18:40.034Z,4.65
2023-03-12T01:21:07.396Z,4.60
2023-03-12T01:23:34.154Z,5.13
2023-03-12T01:26:00.978Z,4.97
2023-03-12T01:28:27.872Z,5.28
2023-03-12T01:30:55.220Z,5.00
2023-03-12T01:33:24.801Z,4.50
2023-03-12T01:35:51.777Z,5.00
2023-03-12T01:38:20.790Z,4.15
2023-03-12T01:40:47.670Z,4.30
2023-03-12T01:43:26.105Z,4.32
2023-03-12T01:46:01.771Z,5.10
2023-03-12T01:48:44.464Z,5.22
2023-03-12T01:51:14.975Z,4.30
2023-03-12T01:53:45.576Z,4.85
2023-03-12T01:56:13.556Z,4.93
2023-03-12T01:58:47.099Z,4.30
2023-03-12T02:01:17.785Z,4.82
2023-03-12T02:03:47.686Z,4.45
2023-03-12T02:06:18.504Z,4.20
2023-03-12T02:08:47.466Z,4.50
2023-03-12T02:11:14.696Z,4.13
2023-03-12T02:13:42.008Z,4.03
2023-03-12T02:16:09.768Z,4.40
2023-03-12T02:18:37.015Z,4.60
2023-03-12T02:21:29.230Z,5.35
2023-03-12T02:24:39.398Z,4.50
2023-03-12T02:27:09.848Z,4.00
2023-03-12T02:29:39.757Z,4.32
2023-03-12T02:32:12.774Z,3.85
2023-03-12T02:34:39.571Z,4.05
2023-03-12T02:37:06.791Z,3.88
2023-03-12T02:39:33.872Z,4.20
2023-03-12T02:42:00.843Z,4.25
2023-03-12T02:44:31.903Z,4.32
2023-03-12T02:47:00.808Z,4.18
2023-03-12T02:49:33.515Z,4.75
2023-03-12T02:52:01.085Z,4.95
2023-03-12T02:54:29.323Z,4.53
2023-03-12T02:56:57.062Z,4.07
2023-03-12T02:59:26.831Z,4.82
2023-03-12T03:01:59.033Z,5.20
2023-03-12T03:04:27.969Z,4.95
2023-03-12T03:06:55.013Z,4.90
2023-03-12T03:09:22.514Z,5.20
2023-03-12T03:11:50.954Z,5.63
2023-03-12T03:14:18.533Z,5.03
2023-03-12T03:16:47.702Z,5.53
2023-03-12T03:19:14.590Z,5.72
2023-03-12T03:21:41.621Z,5.70
2023-03-12T03:24:08.540Z,5.90
2023-03-12T03:26:35.682Z,6.35
2023-03-12T03:29:02.582Z,6.32
2023-03-12T03:31:29.786Z,6.90
2023-03-12T03:33:57.130Z,7.13
2023-03-12T03:36:23.983Z,7.32
2023-03-12T03:38:58.809Z,7.45
2023-03-12T03:41:27.053Z,7.78
2023-03-12T03:43:58.412Z,8.95
2023-03-12T03:46:26.214Z,9.05
2023-03-12T03:48:58.799Z,8.23
2023-03-12T03:51:26.942Z,8.50
2023-03-12T03:54:00.488Z,9.02
2023-03-12T03:56:28.539Z,9.70
2023-03-12T03:58:58.287Z,9.57
2023-03-12T04:01:26.362Z,9.43
2023-03-12T04:03:54.571Z,10.73
2023-03-12T04:06:21.756Z,10.77
2023-03-12T04:08:48.667Z,10.88
2023-03-12T04:11:21.118Z,11.23
2023-03-12T04:13:48.860Z,11.20
2023-03-12T04:16:18.716Z,11.02
2023-03-12T04:18:46.469Z,10.85
2023-03-12T04:21:14.530Z,10.57
2023-03-12T04:23:42.739Z,11.55
2023-03-12T04:26:11.542Z,11.48
2023-03-12T04:28:39.158Z,11.82
2023-03-12T04:31:08.173Z,11.55
2023-03-12T04:33:40.851Z,11.90
2023-03-12T04:36:09.469Z,11.55
2023-03-12T04:38:39.739Z,12.70
2023-03-12T04:41:12.109Z,12.40
2023-03-12T04:43:44.219Z,12.93
2023-03-12T04:46:12.006Z,14.40
2023-03-12T04:48:40.139Z,13.65
2023-03-12T04:51:07.464Z,14.15
2023-03-12T04:53:34.964Z,14.80
2023-03-12T04:56:02.771Z,15.05
2023-03-12T04:58:31.604Z,14.70
2023-03-12T05:00:58.658Z,17.13
2023-03-12T05:03:25.575Z,17.35
2023-03-12T05:06:02.907Z,15.98
2023-03-12T05:08:30.167Z,16.17
2023-03-12T05:10:57.284Z,18.08
2023-03-12T05:13:24.236Z,17.33
2023-03-12T05:15:55.180Z,17.63
2023-03-12T05:18:22.317Z,18.33
2023-03-12T05:21:12.664Z,18.38
2023-03-12T05:23:42.466Z,19.00
2023-03-12T05:26:21.287Z,20.83
2023-03-12T05:28:49.245Z,20.05
2023-03-12T05:31:18.895Z,20.42
2023-03-12T05:33:46.047Z,20.95
2023-03-12T05:36:14.618Z,22.25
2023-03-12T05:38:43.867Z,22.65
2023-03-12T05:41:20.734Z,23.45
2023-03-12T05:43:48.436Z,21.42
2023-03-12T05:46:15.880Z,22.65
2023-03-12T05:48:43.202Z,23.98
2023-03-12T05:51:10.791Z,22.83
2023-03-12T05:53:38.564Z,23.48
2023-03-12T05:56:08.607Z,23.05
2023-03-12T05:58:36.195Z,22.23
2023-03-12T06:01:04.813Z,22.50
2023-03-12T06:03:31.723Z,23.50
2023-03-12T06:05:58.951Z,23.15
2023-03-12T06:08:25.956Z,24.02
2023-03-12T06:10:56.712Z,23.88
2023-03-12T06:13:25.242Z,23.10
2023-03-12T06:15:54.175Z,23.20
2023-03-12T06:18:21.080Z,22.20
2023-03-12T06:20:48.053Z,22.80
2023-03-12T06:23:15.262Z,24.02
2023-03-12T06:25:45.325Z,24.65
2023-03-12T06:28:12.196Z,24.23
2023-03-12T06:30:40.541Z,21.90
2023-03-12T06:33:08.970Z,27.40
2023-03-12T06:35:36.196Z,22.73
2023-03-12T06:38:03.013Z,21.70
2023-03-12T06:40:29.903Z,21.67
2023-03-12T06:42:56.794Z,19.95
2023-03-12T06:45:23.748Z,21.15
2023-03-12T06:47:50.760Z,20.08
2023-03-12T06:50:17.676Z,18.92
2023-03-12T06:52:44.496Z,18.48
2023-03-12T06:55:11.555Z,19.17
2023-03-12T06:57:38.724Z,19.13
2023-03-12T07:00:06.187Z,17.38
2023-03-12T07:02:33.115Z,16.55
2023-03-12T07:05:00.018Z,14.70
2023-03-12T07:07:26.782Z,14.52
2023-03-12T07:09:53.537Z,14.23
2023-03-12T07:12:23.311Z,10.52
2023-03-12T07:14:50.172Z,9.18
2023-03-12T07:17:16.947Z,9.95
2023-03-12T07:19:43.861Z,11.43
2023-03-12T07:22:10.768Z,10.80
2023-03-12T07:24:38.062Z,13.32
2023-03-12T07:27:04.863Z,10.43
2023-03-12T07:29:34.184Z,13.35
2023-03-12T07:32:01.074Z,11.70
2023-03-12T07:34:27.918Z,10.85
2023-03-12T07:36:54.985Z,10.80
2023-03-12T07:39:21.943Z,12.48
2023-03-12T07:41:49.382Z,9.60
2023-03-12T07:44:16.204Z,8.20
2023-03-12T07:46:43.168Z,8.90
2023-03-12T07:49:10.115Z,8.18
2023-03-12T07:51:37.170Z,9.45
2023-03-12T07:54:04.087Z,8.80
2023-03-12T07:56:31.236Z,8.48
2023-03-12T07:58:58.162Z,7.88
2023-03-12T08:01:31.859Z,7.88
2023-03-12T08:03:59.727Z,7.45
2023-03-12T08:06:26.814Z,6.75
2023-03-12T08:08:54.102Z,7.45
2023-03-12T08:11:21.687Z,6.20
2023-03-12T08:13:48.690Z,6.38
2023-03-12T08:16:18.772Z,5.97
2023-03-12T08:18:45.963Z,4.85
2023-03-12T08:21:16.353Z,4.22
2023-03-12T08:23:44.239Z,3.78
2023-03-12T08:26:11.181Z,3.63
2023-03-12T08:28:37.953Z,3.53
2023-03-12T08:31:05.309Z,3.45
2023-03-12T08:33:32.719Z,2.92
2023-03-12T08:35:59.596Z,2.85
2023-03-12T08:38:26.658Z,2.10
2023-03-12T08:41:01.743Z,2.00
2023-03-12T08:43:29.451Z,0.70
2023-03-12T08:46:01.651Z,1.40
2023-03-12T08:48:29.866Z,0.98
2023-03-12T08:50:58.739Z,1.45
2023-03-12T08:53:27.011Z,1.50
2023-03-12T08:55:54.700Z,1.00
2023-03-12T08:58:23.152Z,1.30
2023-03-12T09:00:50.018Z,1.00
2023-03-12T09:03:17.119Z,0.63
2023-03-12T09:05:47.943Z,0.80
2023-03-12T09:08:15.899Z,0.80
2023-03-12T09:10:50.530Z,0.50
2023-03-12T09:13:17.291Z,0.98
2023-03-12T09:15:44.311Z,0.90
2023-03-12T09:18:11.109Z,0.80
2023-03-12T09:20:37.900Z,1.05
2023-03-12T09:23:06.713Z,0.70
2023-03-12T09:25:34.460Z,1.27
2023-03-12T09:28:02.576Z,0.93
2023-03-12T09:30:30.683Z,0.90
2023-03-12T09:32:57.866Z,1.73
2023-03-12T09:35:27.846Z,1.92
2023-03-12T09:37:54.679Z,1.40
2023-03-12T09:40:24.453Z,1.08
2023-03-12T09:43:10.705Z,1.85
2023-03-12T09:45:45.123Z,1.67
2023-03-12T09:48:20.178Z,1.33
2023-03-12T09:50:50.471Z,1.23
2023-03-12T09:53:22.773Z,1.25
2023-03-12T09:55:52.589Z,1.10
2023-03-12T09:58:32.318Z,1.70
2023-03-12T10:01:26.590Z,1.42
2023-03-12T10:04:05.261Z,1.70
2023-03-12T10:06:56.223Z,1.80
2023-03-12T10:09:44.864Z,1.25
2023-03-12T10:13:02.695Z,1.10
2023-03-12T10:15:48.810Z,2.10
2023-03-12T10:18:35.991Z,1.60
2023-03-12T10:21:14.738Z,1.35
2023-03-12T10:24:11.780Z,1.02
2023-03-12T10:26:45.951Z,1.45
2023-03-12T10:29:30.564Z,1.25
2023-03-12T10:32:00.230Z,1.50
2023-03-12T10:34:37.675Z,1.08
2023-03-12T10:37:18.761Z,1.30
2023-03-12T10:39:46.040Z,1.52
2023-03-12T10:42:17.048Z,0.95
2023-03-12T10:44:45.105Z,1.10
2023-03-12T10:47:37.402Z,1.35
2023-03-12T10:50:17.656Z,1.35
2023-03-12T10:52:45.672Z,0.82
2023-03-12T10:55:20.806Z,0.93
2023-03-12T10:57:48.776Z,1.10
2023-03-12T11:00:28.350Z,0.77
2023-03-12T11:03:20.358Z,0.88
2023-03-12T11:05:53.736Z,1.10
2023-03-12T11:08:24.585Z,2.15
2023-03-12T11:10:51.470Z,1.88
2023-03-12T11:13:40.036Z,1.25
2023-03-12T11:16:19.253Z,1.48
2023-03-12T11:19:04.685Z,0.95
2023-03-12T11:21:37.195Z,1.23
2023-03-12T11:24:08.116Z,1.23
2023-03-12T11:26:47.289Z,1.20
2023-03-12T11:29:25.804Z,1.00
2023-03-12T11:32:20.852Z,1.10
2023-03-12T11:34:49.537Z,1.08
2023-03-12T11:37:25.785Z,1.20
2023-03-12T11:40:14.420Z,1.80
2023-03-12T11:43:11.608Z,1.25
2023-03-12T11:46:07.591Z,1.17
2023-03-12T11:48:55.967Z,0.85
2023-03-12T11:51:34.791Z,1.20
2023-03-12T11:54:25.578Z,1.08
2023-03-12T11:56:53.895Z,1.08
2023-03-12T11:59:52.097Z,1.17
2023-03-12T12:02:53.799Z,1.35
2023-03-12T12:05:29.350Z,1.17
2023-03-12T12:08:14.873Z,1.45
2023-03-12T12:11:02.323Z,1.38
2023-03-12T12:13:47.160Z,1.20
2023-03-12T12:16:33.073Z,1.50
2023-03-12T12:19:20.709Z,1.10
2023-03-12T12:21:54.459Z,5.22
2023-03-12T12:24:47.250Z,1.13
2023-03-12T12:27:22.558Z,1.60
2023-03-12T12:30:16.982Z,1.52
2023-03-12T12:33:01.321Z,1.38
2023-03-12T12:35:39.259Z,1.38
2023-03-12T12:38:16.540Z,1.27
2023-03-12T12:40:51.513Z,1.10
2023-03-12T12:43:28.161Z,2.22
2023-03-12T12:46:02.263Z,1.23
2023-03-12T12:48:42.200Z,1.55
2023-03-12T12:51:10.778Z,0.90
2023-03-12T12:53:59.485Z,1.02
2023-03-12T12:56:33.369Z,1.80
2023-03-12T12:59:06.415Z,1.50
2023-03-12T13:01:36.490Z,1.17
2023-03-12T13:04:12.023Z,1.42
2023-03-12T13:07:10.635Z,1.40
2023-03-12T13:09:46.564Z,1.67
2023-03-12T13:12:15.349Z,1.67
2023-03-12T13:14:44.331Z,1.48
2023-03-12T13:17:23.515Z,1.40
2023-03-12T13:20:01.011Z,1.35
2023-03-12T13:22:53.089Z,1.50
2023-03-12T13:25:40.196Z,1.60
2023-03-12T13:28:25.678Z,1.35
2023-03-12T13:30:54.508Z,1.23
2023-03-12T13:33:45.478Z,1.23
2023-03-12T13:36:23.409Z,0.93
2023-03-12T13:39:00.359Z,1.40
2023-03-12T13:41:31.953Z,1.65
2023-03-12T13:43:59.573Z,1.48
2023-03-12T13:46:39.245Z,0.90
2023-03-12T13:49:11.748Z,1.15
2023-03-12T13:51:52.314Z,1.70
2023-03-12T13:54:20.269Z,1.27
2023-03-12T13:56:56.848Z,1.73
2023-03-12T13:59:26.175Z,1.42
2023-03-12T14:02:01.073Z,1.20
2023-03-12T14:04:38.949Z,1.60
2023-03-12T14:07:34.653Z,1.95
2023-03-12T14:10:33.623Z,1.33
2023-03-12T14:13:16.805Z,2.03
2023-03-12T14:16:10.377Z,1.27
2023-03-12T14:18:39.420Z,1.27
2023-03-12T14:21:13.681Z,1.10
2023-03-12T14:23:46.912Z,1.77
2023-03-12T14:26:28.267Z,1.60
2023-03-12T14:29:04.158Z,2.40
2023-03-12T14:31:32.515Z,1.70
2023-03-12T14:34:21.044Z,1.40
2023-03-12T14:37:14.691Z,1.50
2023-03-12T14:40:01.916Z,1.90
2023-03-12T14:42:34.129Z,2.05
2023-03-12T14:45:18.439Z,1.90
2023-03-12T14:47:54.690Z,1.33
2023-03-12T14:50:28.098Z,1.63
2023-03-12T14:52:57.233Z,1.10
2023-03-12T14:55:25.841Z,1.20
2023-03-12T14:58:17.372Z,1.80
2023-03-12T15:00:45.978Z,1.67
2023-03-12T15:03:16.397Z,1.30
2023-03-12T15:05:47.454Z,1.95
2023-03-12T15:08:15.131Z,1.65
2023-03-12T15:10:51.168Z,2.30
2023-03-12T15:13:20.430Z,1.45
2023-03-12T15:15:50.343Z,1.60
2023-03-12T15:18:21.072Z,2.30
2023-03-12T15:20:50.184Z,2.00
2023-03-12T15:23:18.788Z,1.42
2023-03-12T15:25:45.938Z,1.90
2023-03-12T15:28:15.394Z,1.55
2023-03-12T15:30:43.794Z,2.08
2023-03-12T15:33:17.926Z,1.90
2023-03-12T15:36:12.147Z,1.83
2023-03-12T15:38:45.990Z,1.50
2023-03-12T15:41:20.097Z,3.03
2023-03-12T15:43:53.719Z,3.13
2023-03-12T15:46:20.931Z,4.43
2023-03-12T15:48:57.578Z,3.15
2023-03-12T15:51:30.723Z,3.42
2023-03-12T15:54:24.438Z,2.05
2023-03-12T15:56:51.441Z,1.80
2023-03-12T15:59:25.791Z,1.38
2023-03-12T16:01:55.227Z,2.20
2023-03-12T16:04:23.979Z,2.15
2023-03-12T16:06:53.307Z,1.98
2023-03-12T16:09:24.552Z,1.80
2023-03-12T16:11:53.526Z,1.70
2023-03-12T16:14:22.261Z,2.20
2023-03-12T16:16:49.194Z,1.90
2023-03-12T16:19:19.136Z,1.92
2023-03-12T16:21:46.616Z,2.60
2023-03-12T16:24:14.256Z,2.55
2023-03-12T16:26:50.810Z,3.00
2023-03-12T16:29:19.612Z,2.25
2023-03-12T16:31:54.164Z,2.05
2023-03-12T16:34:21.575Z,2.65
2023-03-12T16:36:48.392Z,4.47
2023-03-12T16:39:16.276Z,3.40
2023-03-12T16:41:44.605Z,2.20
2023-03-12T16:44:17.404Z,3.58
2023-03-12T16:46:45.112Z,3.58
2023-03-12T16:49:18.089Z,3.10
2023-03-12T16:51:44.996Z,2.17
2023-03-12T16:54:12.679Z,3.65
2023-03-12T16:56:44.694Z,2.67
2023-03-12T16:59:19.661Z,2.45
2023-03-12T17:01:46.686Z,2.65
2023-03-12T17:04:13.727Z,1.98
2023-03-12T17:06:41.343Z,2.63
2023-03-12T17:09:08.545Z,3.00
2023-03-12T17:11:37.834Z,2.15
2023-03-12T17:14:18.120Z,2.17
2023-03-12T17:16:45.323Z,5.03
2023-03-12T17:19:12.330Z,4.20
2023-03-12T17:21:39.603Z,4.10
2023-03-12T17:24:06.785Z,3.97
2023-03-12T17:26:33.929Z,2.85
2023-03-12T17:29:00.705Z,3.60
2023-03-12T17:31:27.590Z,3.83
2023-03-12T17:33:54.457Z,2.55
2023-03-12T17:36:21.370Z,1.98
2023-03-12T17:38:50.700Z,2.15
2023-03-12T17:41:25.910Z,1.90
2023-03-12T17:43:54.724Z,2.40
2023-03-12T17:46:21.670Z,2.90
2023-03-12T17:48:48.500Z,2.67
2023-03-12T17:51:15.380Z,1.80
2023-03-12T17:53:42.313Z,2.50
2023-03-12T17:56:12.308Z,3.38
2023-03-12T17:58:39.499Z,2.60
2023-03-12T18:01:06.302Z,3.78
2023-03-12T18:03:33.192Z,3.42
2023-03-12T18:06:00.115Z,3.25
2023-03-12T18:08:26.911Z,2.97
2023-03-12T18:10:53.817Z,3.22
2023-03-12T18:13:23.397Z,2.63
2023-03-12T18:15:52.910Z,3.50
2023-03-12T18:18:20.386Z,2.15
2023-03-12T18:20:48.067Z,3.83
2023-03-12T18:23:15.306Z,4.57
2023-03-12T18:25:42.139Z,5.13
2023-03-12T18:28:09.486Z,4.72
2023-03-12T18:30:36.298Z,5.00
2023-03-12T18:33:03.379Z,4.40
2023-03-12T18:35:30.540Z,4.85
2023-03-12T18:37:58.302Z,3.83
2023-03-12T18:40:27.577Z,4.20
2023-03-12T18:42:57.981Z,3.75
2023-03-12T18:45:24.859Z,4.50
2023-03-12T18:47:51.790Z,4.40
2023-03-12T18:50:18.830Z,4.75
2023-03-12T18:52:45.667Z,3.88
2023-03-12T18:55:15.354Z,2.75
2023-03-12T18:57:43.275Z,2.22
2023-03-12T19:00:15.543Z,2.78
2023-03-12T19:02:42.916Z,3.05
2023-03-12T19:05:13.298Z,3.88
2023-03-12T19:07:40.581Z,4.05
2023-03-12T19:10:08.424Z,3.67
2023-03-12T19:12:45.332Z,3.53
2023-03-12T19:15:17.823Z,3.47
2023-03-12T19:17:44.998Z,3.25
2023-03-12T19:20:12.519Z,3.75
2023-03-12T19:22:39.348Z,4.57
2023-03-12T19:25:06.523Z,3.63
2023-03-12T19:27:33.530Z,3.33
2023-03-12T19:30:00.319Z,3.72
2023-03-12T19:32:33.288Z,3.20
2023-03-12T19:35:10.860Z,3.67
2023-03-12T19:37:37.999Z,3.78
2023-03-12T19:40:10.679Z,3.72
2023-03-12T19:42:37.611Z,3.80
2023-03-12T19:45:04.664Z,4.40
2023-03-12T19:47:33.217Z,4.20
2023-03-12T19:50:00.777Z,2.90
2023-03-12T19:52:27.853Z,3.97
2023-03-12T19:55:03.963Z,4.80
2023-03-12T19:57:31.920Z,3.80
2023-03-12T19:59:58.829Z,4.70
2023-03-12T20:02:26.431Z,4.68
2023-03-12T20:04:53.870Z,6.43
2023-03-12T20:07:20.632Z,4.72
2023-03-12T20:09:47.567Z,3.97
2023-03-12T20:12:14.623Z,4.15
2023-03-12T20:14:42.795Z,3.92
2023-03-12T20:17:11.132Z,4.80
2023-03-12T20:19:38.864Z,5.40
2023-03-12T20:22:06.811Z,4.72
2023-03-12T20:24:33.712Z,5.03
2023-03-12T20:27:01.063Z,5.22
2023-03-12T20:29:27.823Z,3.60
2023-03-12T20:31:54.791Z,4.10
2023-03-12T20:34:21.731Z,3.95
2023-03-12T20:36:48.710Z,4.20
2023-03-12T20:39:15.530Z,3.38
2023-03-12T20:41:42.362Z,3.58
2023-03-12T20:44:09.254Z,3.95
2023-03-12T20:46:36.225Z,3.92
2023-03-12T20:49:03.309Z,4.10
2023-03-12T20:51:30.140Z,3.78
2023-03-12T20:53:57.698Z,3.47
2023-03-12T20:56:24.465Z,3.83
2023-03-12T20:58:52.135Z,4.07
2023-03-12T21:01:18.977Z,3.88
2023-03-12T21:03:46.142Z,3.50
2023-03-12T21:06:13.357Z,3.40
2023-03-12T21:08:40.145Z,3.95
2023-03-12T21:11:07.776Z,3.70
2023-03-12T21:13:36.166Z,3.45
2023-03-12T21:16:05.831Z,3.40
2023-03-12T21:18:33.118Z,3.38
2023-03-12T21:21:07.534Z,3.65
2023-03-12T21:23:36.402Z,3.47
2023-03-12T21:26:08.875Z,3.60
2023-03-12T21:28:36.182Z,3.63
2023-03-12T21:31:12.354Z,3.10
2023-03-12T21:33:39.683Z,3.03
2023-03-12T21:36:08.292Z,3.20
2023-03-12T21:38:36.346Z,3.63
2023-03-12T21:41:11.706Z,3.08
2023-03-12T21:43:39.582Z,4.70
2023-03-12T21:46:08.694Z,3.90
2023-03-12T21:48:36.062Z,3.22
2023-03-12T21:51:07.915Z,4.70
2023-03-12T21:53:35.611Z,3.33
2023-03-12T21:56:03.827Z,3.38
2023-03-12T21:58:31.793Z,3.00
2023-03-12T22:01:08.069Z,3.25
2023-03-12T22:03:35.118Z,3.95
2023-03-12T22:06:02.285Z,3.75
2023-03-12T22:08:29.336Z,3.78
2023-03-12T22:10:56.101Z,3.10
2023-03-12T22:13:23.328Z,2.65
2023-03-12T22:15:55.730Z,2.50
2023-03-12T22:18:23.718Z,3.50
2023-03-12T22:20:55.626Z,3.17
2023-03-12T22:23:23.862Z,2.17
2023-03-12T22:25:51.126Z,2.95
2023-03-12T22:28:18.255Z,1.90
2023-03-12T22:30:45.562Z,3.22
2023-03-12T22:33:12.985Z,2.75
2023-03-12T22:35:44.904Z,2.45
2023-03-12T22:38:11.898Z,2.65
2023-03-12T22:40:39.732Z,2.55
2023-03-12T22:43:06.626Z,2.78
2023-03-12T22:45:34.144Z,2.05
2023-03-12T22:48:01.211Z,1.83
2023-03-12T22:50:28.203Z,2.30
2023-03-12T22:52:55.005Z,1.63
2023-03-12T22:55:21.879Z,1.70
2023-03-12T22:57:52.129Z,2.40
2023-03-12T23:00:23.923Z,1.98
2023-03-12T23:02:51.019Z,2.10
2023-03-12T23:05:17.904Z,2.50
2023-03-12T23:07:44.884Z,2.05
2023-03-12T23:10:11.880Z,2.55
2023-03-12T23:12:38.897Z,1.77
2023-03-12T23:15:06.431Z,1.50
2023-03-12T23:17:33.341Z,2.17
2023-03-12T23:20:00.184Z,1.60
2023-03-12T23:22:27.230Z,1.98
2023-03-12T23:24:54.081Z,2.30
2023-03-12T23:27:21.021Z,2.17
2023-03-12T23:29:47.772Z,1.73
2023-03-12T23:32:14.553Z,2.35
2023-03-12T23:34:41.319Z,1.65
2023-03-12T23:37:08.433Z,1.60
2023-03-12T23:39:45.013Z,1.75
2023-03-12T23:42:18.722Z,2.50
2023-03-12T23:44:46.383Z,1.90
2023-03-12T23:47:13.236Z,1.70
2023-03-12T23:49:40.063Z,1.92
2023-03-12T23:52:06.934Z,1.77
2023-03-12T23:54:33.784Z,1.80
2023-03-12T23:57:00.611Z,1.50
2023-03-12T23:59:27.645Z,2.13
